Kinrikimaru — JL6545 — position and weather

sailwx.info

Track history (hours):
 
Tides and Currents Weather Stations Pressure Air Temp Water Temp Dewpoint Dewpoint Depression Visibility Wind Speed Wind Dir Waves Ship Positions

Kinrikimaru

Last reported at 2014-Oct-23 07:33 UTC. Time now 2014-Oct-24 07:49 UTC.
Position N 34°37' E 134°60'.

Length 76 m; draft 3.5 m.

Type: Cargo ship. MMSI: 431500615.

Date/timePositionNaut miles runAvg speedWind from/ knotsBaromVisibWave heightAir tempDewpointWater temp
2014-Oct-23 07:33N 34°37' E 134°60'1110.8
2014-Oct-23 06:33N 34°36' E 135°13'1110.7
2014-Oct-23 05:33N 34°35' E 135°26'0 0.1
2014-Oct-23 04:32N 34°35' E 135°26'0 0.0
2014-Oct-23 03:33N 34°35' E 135°26'0 0.0
2014-Oct-23 02:33N 34°35' E 135°26'0 0.0
2014-Oct-23 01:29N 34°35' E 135°26'0 0.0
2014-Oct-23 00:33N 34°35' E 135°26'0 0.0
2014-Oct-22 23:34N 34°35' E 135°26'2 2.3
2014-Oct-22 22:33N 34°35' E 135°23'0 0.0
2014-Oct-22 21:33N 34°35' E 135°23'0 0.0
2014-Oct-22 20:33N 34°35' E 135°23'0 0.0
2014-Oct-22 19:33N 34°35' E 135°23'0 0.0
2014-Oct-22 18:33N 34°35' E 135°23'0 0.0
2014-Oct-22 17:33N 34°35' E 135°23'0 0.1
2014-Oct-22 16:33N 34°35' E 135°23'1211.5
2014-Oct-22 15:33N 34°35' E 135°09'125 6.2
2014-Oct-21 19:21N 33°59' E 132°44'  
2014-Oct-18 12:30N 35°10' E 139°45'1111.4
2014-Oct-18 11:33N 35°21' E 139°42'9 8.9
2014-Oct-18 10:33N 35°30' E 139°43'0 0.0
2014-Oct-18 09:33N 35°30' E 139°43'0 0.0
2014-Oct-18 08:33N 35°30' E 139°43'0 0.0
2014-Oct-18 07:33N 35°30' E 139°43'0 0.0
2014-Oct-18 06:33N 35°30' E 139°43'0 0.0
2014-Oct-18 05:21N 35°30' E 139°43'0 0.0
2014-Oct-18 04:33N 35°30' E 139°43'0 0.0
2014-Oct-18 03:30N 35°30' E 139°43'0 0.2
2014-Oct-18 02:31N 35°30' E 139°43'0 0.0
2014-Oct-18 01:31N 35°30' E 139°43'0 0.0
2014-Oct-18 00:31N 35°30' E 139°43'0 0.0
2014-Oct-17 23:31N 35°30' E 139°43'0 0.0
2014-Oct-17 22:34N 35°30' E 139°43'6 6.1
2014-Oct-17 21:34N 35°24' E 139°45'0 0.0
2014-Oct-17 20:34N 35°24' E 139°45'0 0.0
2014-Oct-17 19:34N 35°24' E 139°45'0 0.0
2014-Oct-17 18:33N 35°24' E 139°45'0 0.0
2014-Oct-17 17:34N 35°24' E 139°45'0 0.0
2014-Oct-17 16:34N 35°24' E 139°45'0 0.0
2014-Oct-17 15:34N 35°24' E 139°45'0 0.0
2014-Oct-17 14:34N 35°24' E 139°45'0 0.0
2014-Oct-17 13:34N 35°24' E 139°45'6 5.8
2014-Oct-17 12:33N 35°18' E 139°45'243 8.9
2014-Oct-16 09:13N 34°14' E 134°59'1110.9
2014-Oct-16 08:14N 34°24' E 135°03'911.9
2014-Oct-16 07:30N 34°30' E 135°12'1111.7
2014-Oct-16 06:32N 34°36' E 135°23'3 2.5
2014-Oct-16 05:29N 34°35' E 135°26'0 0.0
2014-Oct-16 04:30N 34°35' E 135°26'0 0.0
2014-Oct-16 03:33N 34°35' E 135°26'0 0.0
2014-Oct-16 02:32N 34°35' E 135°26'0 0.0
2014-Oct-16 01:33N 34°35' E 135°26'0 0.0
2014-Oct-16 00:33N 34°35' E 135°26'0 0.0
2014-Oct-15 23:30N 34°35' E 135°26'2 2.6
2014-Oct-15 22:33N 34°36' E 135°23'0 0.0
2014-Oct-15 21:32N 34°36' E 135°23'0 0.0
2014-Oct-15 20:33N 34°36' E 135°23'0 0.0
2014-Oct-15 19:33N 34°36' E 135°23'0 0.0
2014-Oct-15 18:33N 34°36' E 135°23'0 0.0
2014-Oct-15 17:33N 34°36' E 135°23'0 0.0
2014-Oct-15 16:33N 34°36' E 135°23'0 0.0
2014-Oct-15 15:33N 34°36' E 135°23'0 0.0
2014-Oct-15 14:33N 34°36' E 135°23'0 0.0
2014-Oct-15 13:26N 34°36' E 135°23'0 0.1
2014-Oct-15 12:33N 34°36' E 135°23'0 0.0
2014-Oct-15 11:33N 34°36' E 135°23'0 0.0
2014-Oct-15 10:33N 34°36' E 135°23'0 0.0
2014-Oct-15 09:33N 34°36' E 135°23'0 0.0
2014-Oct-15 08:33N 34°36' E 135°23'8 8.4
2014-Oct-15 07:33N 34°35' E 135°13'12910.6
2014-Oct-14 19:27N 33°58' E 132°43'23 1.0
2014-Oct-13 21:07N 34°08' E 132°18'2 1.2
2014-Oct-13 19:23N 34°10' E 132°18'0 0.0
2014-Oct-13 18:30N 34°10' E 132°18'0 0.0
2014-Oct-13 17:32N 34°10' E 132°18'0 0.0
2014-Oct-13 16:33N 34°10' E 132°18'0 0.0
2014-Oct-13 15:29N 34°10' E 132°18'0 0.0
2014-Oct-13 14:33N 34°10' E 132°18'0 0.0
2014-Oct-13 08:29N 34°10' E 132°18'  
Track history (hours):
 
Tides and Currents Weather Stations Pressure Air Temp Water Temp Dewpoint Dewpoint Depression Visibility Wind Speed Wind Dir Waves Ship Positions

Kinrikimaru

Last reported at 2014-Oct-23 07:33 UTC. Time now 2014-Oct-24 07:49 UTC.
Position N 34°37' E 134°60'.

Length 76 m; draft 3.5 m.

Type: Cargo ship. MMSI: 431500615.

Date/timePositionNaut miles runAvg speedWind from/ knotsBaromVisibWave heightAir tempDewpointWater temp
2014-Oct-23 07:33N 34°37' E 134°60'1110.8
2014-Oct-23 06:33N 34°36' E 135°13'1110.7
2014-Oct-23 05:33N 34°35' E 135°26'0 0.1
2014-Oct-23 04:32N 34°35' E 135°26'0 0.0
2014-Oct-23 03:33N 34°35' E 135°26'0 0.0
2014-Oct-23 02:33N 34°35' E 135°26'0 0.0
2014-Oct-23 01:29N 34°35' E 135°26'0 0.0
2014-Oct-23 00:33N 34°35' E 135°26'0 0.0
2014-Oct-22 23:34N 34°35' E 135°26'2 2.3
2014-Oct-22 22:33N 34°35' E 135°23'0 0.0
2014-Oct-22 21:33N 34°35' E 135°23'0 0.0
2014-Oct-22 20:33N 34°35' E 135°23'0 0.0
2014-Oct-22 19:33N 34°35' E 135°23'0 0.0
2014-Oct-22 18:33N 34°35' E 135°23'0 0.0
2014-Oct-22 17:33N 34°35' E 135°23'0 0.1
2014-Oct-22 16:33N 34°35' E 135°23'1211.5
2014-Oct-22 15:33N 34°35' E 135°09'125 6.2
2014-Oct-21 19:21N 33°59' E 132°44'  
2014-Oct-18 12:30N 35°10' E 139°45'1111.4
2014-Oct-18 11:33N 35°21' E 139°42'9 8.9
2014-Oct-18 10:33N 35°30' E 139°43'0 0.0
2014-Oct-18 09:33N 35°30' E 139°43'0 0.0
2014-Oct-18 08:33N 35°30' E 139°43'0 0.0
2014-Oct-18 07:33N 35°30' E 139°43'0 0.0
2014-Oct-18 06:33N 35°30' E 139°43'0 0.0
2014-Oct-18 05:21N 35°30' E 139°43'0 0.0
2014-Oct-18 04:33N 35°30' E 139°43'0 0.0
2014-Oct-18 03:30N 35°30' E 139°43'0 0.2
2014-Oct-18 02:31N 35°30' E 139°43'0 0.0
2014-Oct-18 01:31N 35°30' E 139°43'0 0.0
2014-Oct-18 00:31N 35°30' E 139°43'0 0.0
2014-Oct-17 23:31N 35°30' E 139°43'0 0.0
2014-Oct-17 22:34N 35°30' E 139°43'6 6.1
2014-Oct-17 21:34N 35°24' E 139°45'0 0.0
2014-Oct-17 20:34N 35°24' E 139°45'0 0.0
2014-Oct-17 19:34N 35°24' E 139°45'0 0.0
2014-Oct-17 18:33N 35°24' E 139°45'0 0.0
2014-Oct-17 17:34N 35°24' E 139°45'0 0.0
2014-Oct-17 16:34N 35°24' E 139°45'0 0.0
2014-Oct-17 15:34N 35°24' E 139°45'0 0.0
2014-Oct-17 14:34N 35°24' E 139°45'0 0.0
2014-Oct-17 13:34N 35°24' E 139°45'6 5.8
2014-Oct-17 12:33N 35°18' E 139°45'243 8.9
2014-Oct-16 09:13N 34°14' E 134°59'1110.9
2014-Oct-16 08:14N 34°24' E 135°03'911.9
2014-Oct-16 07:30N 34°30' E 135°12'1111.7
2014-Oct-16 06:32N 34°36' E 135°23'3 2.5
2014-Oct-16 05:29N 34°35' E 135°26'0 0.0
2014-Oct-16 04:30N 34°35' E 135°26'0 0.0
2014-Oct-16 03:33N 34°35' E 135°26'0 0.0
2014-Oct-16 02:32N 34°35' E 135°26'0 0.0
2014-Oct-16 01:33N 34°35' E 135°26'0 0.0
2014-Oct-16 00:33N 34°35' E 135°26'0 0.0
2014-Oct-15 23:30N 34°35' E 135°26'2 2.6
2014-Oct-15 22:33N 34°36' E 135°23'0 0.0
2014-Oct-15 21:32N 34°36' E 135°23'0 0.0
2014-Oct-15 20:33N 34°36' E 135°23'0 0.0
2014-Oct-15 19:33N 34°36' E 135°23'0 0.0
2014-Oct-15 18:33N 34°36' E 135°23'0 0.0
2014-Oct-15 17:33N 34°36' E 135°23'0 0.0
2014-Oct-15 16:33N 34°36' E 135°23'0 0.0
2014-Oct-15 15:33N 34°36' E 135°23'0 0.0
2014-Oct-15 14:33N 34°36' E 135°23'0 0.0
2014-Oct-15 13:26N 34°36' E 135°23'0 0.1
2014-Oct-15 12:33N 34°36' E 135°23'0 0.0
2014-Oct-15 11:33N 34°36' E 135°23'0 0.0
2014-Oct-15 10:33N 34°36' E 135°23'0 0.0
2014-Oct-15 09:33N 34°36' E 135°23'0 0.0
2014-Oct-15 08:33N 34°36' E 135°23'8 8.4
2014-Oct-15 07:33N 34°35' E 135°13'12910.6
2014-Oct-14 19:27N 33°58' E 132°43'23 1.0
2014-Oct-13 21:07N 34°08' E 132°18'2 1.2
2014-Oct-13 19:23N 34°10' E 132°18'0 0.0
2014-Oct-13 18:30N 34°10' E 132°18'0 0.0
2014-Oct-13 17:32N 34°10' E 132°18'0 0.0
2014-Oct-13 16:33N 34°10' E 132°18'0 0.0
2014-Oct-13 15:29N 34°10' E 132°18'0 0.0
2014-Oct-13 14:33N 34°10' E 132°18'0 0.0
2014-Oct-13 08:29N 34°10' E 132°18'  

Dump ship's entire track history